Terminal Aerodrome Forecast
Issued by NWS Denver/Boulder, CO

Home | Current Version | Previous Version | Text Only | Print | Product List | Glossary On
Versions: 1 2 3 4 5 6 7 8 9 10 11 12 13 14 15 16 17 18 19 20 21 22 23 24 25 26 27 28 29 30 31 32 33 34 35 36 37 38 39 40 41
000
FTUS45 KBOU 290901 AAA
TAFDEN
TAF AMD
KDEN 290901Z 2909/3012 21009KT P6SM FEW200
     FM291600 VRB05KT P6SM FEW080 SCT160
     FM291800 14007KT P6SM SCT070 SCT160
     FM292100 10011KT P6SM SCT070 BKN140 PROB30 2921/3001 VRB15G25KT
      -TSRA BKN070CB
     FM300100 23011KT P6SM FEW070 SCT140 BKN220=

USA.gov is the U.S. government's official web portal to all federal, state and local government web resources and services.